AIRPORT MAP

 RUNWAY INFORMATION

Runway 10 Runway length 8169 ft Runway width 148 ft
Runway elevation 24 ft Runway displaced threshold 148 ft Runway heading 100
Runway 28 Runway length 8169 ft Runway width 148 ft
Runway elevation 18 ft Runway displaced threshold 148 ft Runway heading 280

 AIRPORT FREQUENCIES

Type APP Name APP Frequency 119.4 MHZ
Type ATIS Name ATIS Frequency 124.2 MHZ
Type GND Name GND Frequency 118.575 MHZ
Type TWR Name TWR Frequency 118.2 MHZ

 AIRPORT NEAR NAVIGATION AIDS

Type NDB Name Faro Frequency 332 KHZ
Type VOR-DME Name Faro Frequency 112800 KHZ

 METAR AND TAF INFORMATION

METAR FOR LPFR
ADDS - METARS form results

(0945 UTC 27 May 2020)
Data provider http://aviationweather.gov/metar/data/
 
METAR text: LPFR 270930Z 09015KT CAVOK 24/15 Q1018
Conditions at: LPFR (FARO , PT) observed 0930 UTC 27 May 2020
Temperature: 24.0°C (75°F)
Dewpoint: 15.0°C (59°F) [RH = 57%]
Pressure (altimeter): 30.06 inches Hg (1018.0 mb)
Winds: from the E (90 degrees) at 17 MPH (15 knots; 7.7 m/s)
Visibility: 6 or more miles (10+ km)
Ceiling: ceiling and visibility are OK
Clouds: unknown
Weather: no significant weather observed at this time

METAR text: LPFR 270900Z 09013KT CAVOK 23/17 Q1018
Conditions at: LPFR (FARO , PT) observed 0900 UTC 27 May 2020
Temperature: 23.0°C (73°F)
Dewpoint: 17.0°C (63°F) [RH = 69%]
Pressure (altimeter): 30.06 inches Hg (1018.0 mb)
Winds: from the E (90 degrees) at 15 MPH (13 knots; 6.7 m/s)
Visibility: 6 or more miles (10+ km)
Ceiling: ceiling and visibility are OK
Clouds: unknown
Weather: no significant weather observed at this time

Forecast for: LPFR (FARO , PT)
Text: TAF LPFR 270500Z 2706/2806 09012KT CAVOK
Forecast period: 0600 to 1000 UTC 27 May 2020
Forecast type: FROM: standard forecast or significant change
Winds: from the E (90 degrees) at 14 MPH (12 knots; 6.2 m/s)
Visibility: 6 or more miles 10+ km)
Ceiling: unknown
Clouds: missing
Weather: NSW  (no significant weather)
Text: BECMG 2710/2713 12012KT
Forecast period: 1000 to 1900 UTC 27 May 2020
Forecast type: BECOMING: Conditions expected to become as follows by 1300 UTC 27 May 2020
Winds: from the ESE (120 degrees) at 14 MPH (12 knots; 6.2 m/s)
Visibility: 6 or more miles 10+ km)
Ceiling: unknown
Clouds: missing
Weather: NSW  (no significant weather)
Text: PROB30 2713/2718 9999 FEW040CB
Forecast period: 1300 to 1800 UTC 27 May 2020
Forecast type: PROBABLE: 30 percent likelihood of the following during this time
Visibility: 6 or more miles 10+ km)
Ceiling: at least 12,000 feet AGL
Clouds: few clouds at 4000 feet AGL
Weather: no significant weather forecast for this period
Text: BECMG 2719/2722 06007KT
Forecast period: 1900 UTC 27 May 2020 to 0600 UTC 28 May 2020
Forecast type: BECOMING: Conditions expected to become as follows by 2200 UTC 27 May 2020
Winds: from the ENE (60 degrees) at 8 MPH (7 knots; 3.6 m/s)
Visibility: 6 or more miles 10+ km)
Ceiling: unknown
Clouds: missing
Weather: NSW  (no significant weather)